sensor_id;sensor_type;location;lat;lon;timestamp;pressure;altitude;pressure_sealevel;temperature
73894;BMP280;62699;50.534;12.784;2023-12-20T00:01:30;95889.56;;;4.12
73894;BMP280;62699;50.534;12.784;2023-12-20T00:06:31;95905.56;;;4.12
73894;BMP280;62699;50.534;12.784;2023-12-20T00:11:31;95910.88;;;4.12
73894;BMP280;62699;50.534;12.784;2023-12-20T00:16:31;95885.88;;;4.09
73894;BMP280;62699;50.534;12.784;2023-12-20T00:21:31;95880.56;;;4.09
73894;BMP280;62699;50.534;12.784;2023-12-20T00:26:32;95881.28;;;4.10
73894;BMP280;62699;50.534;12.784;2023-12-20T00:31:32;95875.13;;;4.04
73894;BMP280;62699;50.534;12.784;2023-12-20T00:36:32;95870.72;;;4.01
73894;BMP280;62699;50.534;12.784;2023-12-20T00:41:32;95857.78;;;3.94
73894;BMP280;62699;50.534;12.784;2023-12-20T00:46:33;95864.72;;;3.91
73894;BMP280;62699;50.534;12.784;2023-12-20T00:51:33;95864.72;;;3.91
73894;BMP280;62699;50.534;12.784;2023-12-20T00:56:33;95849.09;;;3.84
73894;BMP280;62699;50.534;12.784;2023-12-20T01:01:33;95850.75;;;3.81
73894;BMP280;62699;50.534;12.784;2023-12-20T01:06:34;95848.53;;;3.80
73894;BMP280;62699;50.534;12.784;2023-12-20T01:11:34;95833.13;;;3.84
73894;BMP280;62699;50.534;12.784;2023-12-20T01:16:34;95842.34;;;3.74
73894;BMP280;62699;50.534;12.784;2023-12-20T01:21:34;95841.16;;;3.75
73894;BMP280;62699;50.534;12.784;2023-12-20T01:26:35;95835.56;;;3.73
73894;BMP280;62699;50.534;12.784;2023-12-20T01:31:35;95844.91;;;3.68
73894;BMP280;62699;50.534;12.784;2023-12-20T01:36:35;95842.69;;;3.67
73894;BMP280;62699;50.534;12.784;2023-12-20T01:41:35;95834.56;;;3.70
73894;BMP280;62699;50.534;12.784;2023-12-20T01:46:35;95836.94;;;3.68
73894;BMP280;62699;50.534;12.784;2023-12-20T01:51:36;95816.56;;;3.65
73894;BMP280;62699;50.534;12.784;2023-12-20T01:56:37;95817.63;;;3.59
73894;BMP280;62699;50.534;12.784;2023-12-20T02:01:37;95822.66;;;3.57
73894;BMP280;62699;50.534;12.784;2023-12-20T02:06:39;95801.94;;;3.61
73894;BMP280;62699;50.534;12.784;2023-12-20T02:11:40;95802.09;;;3.57
73894;BMP280;62699;50.534;12.784;2023-12-20T02:16:40;95804.94;;;3.54
73894;BMP280;62699;50.534;12.784;2023-12-20T02:21:41;95794.84;;;3.58
73894;BMP280;62699;50.534;12.784;2023-12-20T02:26:41;95785.13;;;3.55
73894;BMP280;62699;50.534;12.784;2023-12-20T02:31:41;95786.47;;;3.50
73894;BMP280;62699;50.534;12.784;2023-12-20T02:36:41;95784.56;;;3.51
73894;BMP280;62699;50.534;12.784;2023-12-20T02:41:42;95780.88;;;3.48
73894;BMP280;62699;50.534;12.784;2023-12-20T02:46:42;95781.09;;;3.45
73894;BMP280;62699;50.534;12.784;2023-12-20T02:51:42;95780.78;;;3.42
73894;BMP280;62699;50.534;12.784;2023-12-20T02:56:42;95779.41;;;3.47
73894;BMP280;62699;50.534;12.784;2023-12-20T03:01:45;95780.34;;;3.44
73894;BMP280;62699;50.534;12.784;2023-12-20T03:06:45;95776.06;;;3.37
73894;BMP280;62699;50.534;12.784;2023-12-20T03:11:45;95762.50;;;3.35
73894;BMP280;62699;50.534;12.784;2023-12-20T03:16:49;95772.97;;;3.39
73894;BMP280;62699;50.534;12.784;2023-12-20T03:21:50;95779.94;;;3.36
73894;BMP280;62699;50.534;12.784;2023-12-20T03:26:50;95781.59;;;3.34
73894;BMP280;62699;50.534;12.784;2023-12-20T03:31:50;95769.47;;;3.33
73894;BMP280;62699;50.534;12.784;2023-12-20T03:36:50;95768.44;;;3.30
73894;BMP280;62699;50.534;12.784;2023-12-20T03:41:51;95793.28;;;3.27
73894;BMP280;62699;50.534;12.784;2023-12-20T03:46:51;95792.72;;;3.23
73894;BMP280;62699;50.534;12.784;2023-12-20T03:51:51;95799.97;;;3.23
73894;BMP280;62699;50.534;12.784;2023-12-20T03:56:52;95794.81;;;3.19
73894;BMP280;62699;50.534;12.784;2023-12-20T04:01:52;95797.63;;;3.16
73894;BMP280;62699;50.534;12.784;2023-12-20T04:06:53;95802.84;;;3.10
73894;BMP280;62699;50.534;12.784;2023-12-20T04:11:53;95802.00;;;3.04
73894;BMP280;62699;50.534;12.784;2023-12-20T04:16:53;95813.81;;;3.03
73894;BMP280;62699;50.534;12.784;2023-12-20T04:21:54;95809.97;;;3.04
73894;BMP280;62699;50.534;12.784;2023-12-20T04:26:54;95804.34;;;3.02
73894;BMP280;62699;50.534;12.784;2023-12-20T04:31:54;95810.13;;;3.00
73894;BMP280;62699;50.534;12.784;2023-12-20T04:36:55;95798.63;;;2.94
73894;BMP280;62699;50.534;12.784;2023-12-20T04:41:55;95791.13;;;2.93
73894;BMP280;62699;50.534;12.784;2023-12-20T04:46:55;95806.63;;;2.85
73894;BMP280;62699;50.534;12.784;2023-12-20T04:51:56;95792.91;;;2.87
73894;BMP280;62699;50.534;12.784;2023-12-20T04:56:57;95810.03;;;2.86
73894;BMP280;62699;50.534;12.784;2023-12-20T05:01:57;95822.75;;;2.82
73894;BMP280;62699;50.534;12.784;2023-12-20T05:06:58;95814.94;;;2.78
73894;BMP280;62699;50.534;12.784;2023-12-20T05:11:58;95813.75;;;2.79
73894;BMP280;62699;50.534;12.784;2023-12-20T05:16:59;95809.22;;;2.71
73894;BMP280;62699;50.534;12.784;2023-12-20T05:21:59;95826.94;;;2.74
73894;BMP280;62699;50.534;12.784;2023-12-20T05:26:59;95832.38;;;2.70
73894;BMP280;62699;50.534;12.784;2023-12-20T05:32:00;95834.59;;;2.72
73894;BMP280;62699;50.534;12.784;2023-12-20T05:37:00;95816.88;;;2.69
73894;BMP280;62699;50.534;12.784;2023-12-20T05:42:01;95816.59;;;2.66
73894;BMP280;62699;50.534;12.784;2023-12-20T05:47:02;95826.03;;;2.67
73894;BMP280;62699;50.534;12.784;2023-12-20T05:52:02;95821.75;;;2.70
73894;BMP280;62699;50.534;12.784;2023-12-20T05:57:02;95833.41;;;2.73
73894;BMP280;62699;50.534;12.784;2023-12-20T06:02:03;95832.81;;;2.78
73894;BMP280;62699;50.534;12.784;2023-12-20T06:07:04;95831.91;;;2.81
73894;BMP280;62699;50.534;12.784;2023-12-20T06:12:04;95841.91;;;2.95
73894;BMP280;62699;50.534;12.784;2023-12-20T06:17:05;95847.19;;;3.04
73894;BMP280;62699;50.534;12.784;2023-12-20T06:22:05;95841.53;;;3.11
73894;BMP280;62699;50.534;12.784;2023-12-20T06:27:05;95841.53;;;3.11
73894;BMP280;62699;50.534;12.784;2023-12-20T06:32:05;95852.72;;;3.24
73894;BMP280;62699;50.534;12.784;2023-12-20T06:37:06;95864.06;;;3.34
73894;BMP280;62699;50.534;12.784;2023-12-20T06:42:06;95869.47;;;3.39
73894;BMP280;62699;50.534;12.784;2023-12-20T06:47:07;95886.78;;;3.44
73894;BMP280;62699;50.534;12.784;2023-12-20T06:52:07;95885.84;;;3.47
73894;BMP280;62699;50.534;12.784;2023-12-20T06:57:07;95894.56;;;3.48
73894;BMP280;62699;50.534;12.784;2023-12-20T07:02:11;95892.47;;;3.52
73894;BMP280;62699;50.534;12.784;2023-12-20T07:07:11;95906.41;;;3.47
73894;BMP280;62699;50.534;12.784;2023-12-20T07:12:11;95895.94;;;3.43
73894;BMP280;62699;50.534;12.784;2023-12-20T07:17:12;95895.94;;;3.43
73894;BMP280;62699;50.534;12.784;2023-12-20T07:22:13;95916.28;;;3.22
73894;BMP280;62699;50.534;12.784;2023-12-20T07:27:14;95922.31;;;3.23
73894;BMP280;62699;50.534;12.784;2023-12-20T07:32:14;95928.94;;;3.27
73894;BMP280;62699;50.534;12.784;2023-12-20T07:37:14;95916.97;;;3.32
73894;BMP280;62699;50.534;12.784;2023-12-20T07:42:14;95909.72;;;3.32
73894;BMP280;62699;50.534;12.784;2023-12-20T07:47:15;95904.41;;;3.32
73894;BMP280;62699;50.534;12.784;2023-12-20T07:52:18;95917.06;;;3.37
73894;BMP280;62699;50.534;12.784;2023-12-20T07:57:19;95924.16;;;3.40
73894;BMP280;62699;50.534;12.784;2023-12-20T08:02:19;95927.56;;;3.41
73894;BMP280;62699;50.534;12.784;2023-12-20T08:07:19;95919.44;;;3.45
73894;BMP280;62699;50.534;12.784;2023-12-20T08:12:19;95915.38;;;3.49
73894;BMP280;62699;50.534;12.784;2023-12-20T08:17:20;95918.34;;;3.51
73894;BMP280;62699;50.534;12.784;2023-12-20T08:22:20;95915.22;;;3.53
73894;BMP280;62699;50.534;12.784;2023-12-20T08:27:20;95918.47;;;3.57
73894;BMP280;62699;50.534;12.784;2023-12-20T08:32:20;95921.13;;;3.57
73894;BMP280;62699;50.534;12.784;2023-12-20T08:37:20;95914.50;;;3.52
73894;BMP280;62699;50.534;12.784;2023-12-20T08:42:21;95930.72;;;3.63
73894;BMP280;62699;50.534;12.784;2023-12-20T08:47:21;95933.28;;;3.81
73894;BMP280;62699;50.534;12.784;2023-12-20T08:52:22;95938.16;;;3.83
73894;BMP280;62699;50.534;12.784;2023-12-20T08:57:23;95948.75;;;3.92
73894;BMP280;62699;50.534;12.784;2023-12-20T09:02:24;95954.00;;;4.01
73894;BMP280;62699;50.534;12.784;2023-12-20T09:07:25;95947.78;;;4.04
73894;BMP280;62699;50.534;12.784;2023-12-20T09:12:28;95963.41;;;4.11
73894;BMP280;62699;50.534;12.784;2023-12-20T09:17:29;95954.16;;;4.21
73894;BMP280;62699;50.534;12.784;2023-12-20T09:22:29;95954.59;;;4.20
73894;BMP280;62699;50.534;12.784;2023-12-20T09:27:29;95963.19;;;4.24
73894;BMP280;62699;50.534;12.784;2023-12-20T09:32:30;95955.88;;;4.34
73894;BMP280;62699;50.534;12.784;2023-12-20T09:37:30;95962.28;;;4.42
73894;BMP280;62699;50.534;12.784;2023-12-20T09:42:43;95958.53;;;4.34
73894;BMP280;62699;50.534;12.784;2023-12-20T09:47:49;95954.94;;;4.37
73894;BMP280;62699;50.534;12.784;2023-12-20T09:52:52;95957.59;;;4.37
73894;BMP280;62699;50.534;12.784;2023-12-20T09:57:52;95954.59;;;4.44
73894;BMP280;62699;50.534;12.784;2023-12-20T10:03:00;95951.84;;;4.53
73894;BMP280;62699;50.534;12.784;2023-12-20T10:08:01;95940.00;;;4.69
73894;BMP280;62699;50.534;12.784;2023-12-20T10:13:05;95935.41;;;4.84
73894;BMP280;62699;50.534;12.784;2023-12-20T10:18:06;95927.97;;;4.88
73894;BMP280;62699;50.534;12.784;2023-12-20T10:23:07;95909.38;;;5.08
73894;BMP280;62699;50.534;12.784;2023-12-20T10:28:15;95907.28;;;4.97
73894;BMP280;62699;50.534;12.784;2023-12-20T10:33:26;95888.66;;;5.18
73894;BMP280;62699;50.534;12.784;2023-12-20T10:38:26;95891.28;;;4.83
73894;BMP280;62699;50.534;12.784;2023-12-20T10:43:30;95884.50;;;4.67
73894;BMP280;62699;50.534;12.784;2023-12-20T10:48:30;95881.50;;;4.80
73894;BMP280;62699;50.534;12.784;2023-12-20T10:53:33;95878.19;;;4.99
73894;BMP280;62699;50.534;12.784;2023-12-20T10:58:34;95858.81;;;4.84
73894;BMP280;62699;50.534;12.784;2023-12-20T11:03:36;95873.06;;;4.81
73894;BMP280;62699;50.534;12.784;2023-12-20T11:08:46;95858.53;;;4.82
73894;BMP280;62699;50.534;12.784;2023-12-20T11:14:02;95863.25;;;4.73
73894;BMP280;62699;50.534;12.784;2023-12-20T11:19:07;95843.84;;;4.72
73894;BMP280;62699;50.534;12.784;2023-12-20T11:24:07;95841.72;;;4.76
73894;BMP280;62699;50.534;12.784;2023-12-20T11:34:32;95838.75;;;4.89
73894;BMP280;62699;50.534;12.784;2023-12-20T11:39:33;95838.81;;;4.94
73894;BMP280;62699;50.534;12.784;2023-12-20T11:44:33;95831.47;;;5.04
73894;BMP280;62699;50.534;12.784;2023-12-20T11:49:33;95838.75;;;4.89
73894;BMP280;62699;50.534;12.784;2023-12-20T11:54:33;95831.59;;;4.80
73894;BMP280;62699;50.534;12.784;2023-12-20T11:59:34;95824.69;;;4.88
73894;BMP280;62699;50.534;12.784;2023-12-20T12:04:34;95819.78;;;5.01
73894;BMP280;62699;50.534;12.784;2023-12-20T12:09:35;95823.44;;;4.69
73894;BMP280;62699;50.534;12.784;2023-12-20T12:14:35;95823.97;;;4.58
73894;BMP280;62699;50.534;12.784;2023-12-20T12:19:37;95816.47;;;4.57
73894;BMP280;62699;50.534;12.784;2023-12-20T12:24:37;95810.38;;;4.71
73894;BMP280;62699;50.534;12.784;2023-12-20T12:29:37;95814.69;;;4.83
73894;BMP280;62699;50.534;12.784;2023-12-20T12:34:39;95821.31;;;4.73
73894;BMP280;62699;50.534;12.784;2023-12-20T12:39:40;95818.47;;;4.77
73894;BMP280;62699;50.534;12.784;2023-12-20T12:44:40;95805.78;;;4.72
73894;BMP280;62699;50.534;12.784;2023-12-20T12:49:40;95783.19;;;4.67
73894;BMP280;62699;50.534;12.784;2023-12-20T12:54:41;95781.66;;;4.46
73894;BMP280;62699;50.534;12.784;2023-12-20T12:59:43;95769.41;;;4.39
73894;BMP280;62699;50.534;12.784;2023-12-20T13:04:45;95757.38;;;4.29
73894;BMP280;62699;50.534;12.784;2023-12-20T13:09:45;95764.09;;;4.25
73894;BMP280;62699;50.534;12.784;2023-12-20T13:14:46;95761.53;;;4.30
73894;BMP280;62699;50.534;12.784;2023-12-20T13:19:46;95749.59;;;4.26
73894;BMP280;62699;50.534;12.784;2023-12-20T13:24:46;95742.41;;;4.02
73894;BMP280;62699;50.534;12.784;2023-12-20T13:29:47;95729.69;;;4.06
73894;BMP280;62699;50.534;12.784;2023-12-20T13:34:47;95707.72;;;3.97
73894;BMP280;62699;50.534;12.784;2023-12-20T13:39:48;95689.91;;;3.88
73894;BMP280;62699;50.534;12.784;2023-12-20T13:44:48;95701.81;;;3.78
73894;BMP280;62699;50.534;12.784;2023-12-20T13:49:48;95668.41;;;3.77
73894;BMP280;62699;50.534;12.784;2023-12-20T13:54:48;95659.78;;;3.82
73894;BMP280;62699;50.534;12.784;2023-12-20T13:59:49;95660.06;;;3.84
73894;BMP280;62699;50.534;12.784;2023-12-20T14:04:49;95663.66;;;3.81
73894;BMP280;62699;50.534;12.784;2023-12-20T14:09:49;95663.66;;;3.81
73894;BMP280;62699;50.534;12.784;2023-12-20T14:14:50;95668.06;;;3.84
73894;BMP280;62699;50.534;12.784;2023-12-20T14:19:50;95682.66;;;3.74
73894;BMP280;62699;50.534;12.784;2023-12-20T14:24:51;95696.59;;;3.69
73894;BMP280;62699;50.534;12.784;2023-12-20T14:29:52;95679.25;;;3.73
73894;BMP280;62699;50.534;12.784;2023-12-20T14:34:52;95678.78;;;3.60
73894;BMP280;62699;50.534;12.784;2023-12-20T14:39:52;95674.47;;;3.63
73894;BMP280;62699;50.534;12.784;2023-12-20T14:44:52;95670.97;;;3.57
73894;BMP280;62699;50.534;12.784;2023-12-20T14:49:54;95684.69;;;3.64
73894;BMP280;62699;50.534;12.784;2023-12-20T14:54:54;95681.72;;;3.62
73894;BMP280;62699;50.534;12.784;2023-12-20T14:59:55;95685.41;;;3.65
73894;BMP280;62699;50.534;12.784;2023-12-20T15:04:56;95706.28;;;3.57
73894;BMP280;62699;50.534;12.784;2023-12-20T15:09:56;95708.19;;;3.66
73894;BMP280;62699;50.534;12.784;2023-12-20T15:14:56;95707.69;;;3.67
73894;BMP280;62699;50.534;12.784;2023-12-20T15:19:57;95697.53;;;3.66
73894;BMP280;62699;50.534;12.784;2023-12-20T15:24:57;95721.06;;;3.58
73894;BMP280;62699;50.534;12.784;2023-12-20T15:29:59;95710.16;;;3.56
73894;BMP280;62699;50.534;12.784;2023-12-20T15:34:59;95716.16;;;3.66
73894;BMP280;62699;50.534;12.784;2023-12-20T15:39:59;95717.34;;;3.65
73894;BMP280;62699;50.534;12.784;2023-12-20T15:45:00;95702.47;;;3.73
73894;BMP280;62699;50.534;12.784;2023-12-20T15:50:00;95727.81;;;3.83
73894;BMP280;62699;50.534;12.784;2023-12-20T15:55:01;95717.19;;;3.83
73894;BMP280;62699;50.534;12.784;2023-12-20T16:00:01;95737.81;;;3.88
73894;BMP280;62699;50.534;12.784;2023-12-20T16:05:02;95705.88;;;3.88
73894;BMP280;62699;50.534;12.784;2023-12-20T16:10:03;95706.16;;;3.90
73894;BMP280;62699;50.534;12.784;2023-12-20T16:15:04;95684.94;;;3.96
73894;BMP280;62699;50.534;12.784;2023-12-20T16:20:05;95672.44;;;3.87
73894;BMP280;62699;50.534;12.784;2023-12-20T16:25:07;95669.16;;;3.92
73894;BMP280;62699;50.534;12.784;2023-12-20T16:30:08;95679.53;;;3.90
73894;BMP280;62699;50.534;12.784;2023-12-20T16:35:09;95693.66;;;3.81
73894;BMP280;62699;50.534;12.784;2023-12-20T16:40:10;95705.13;;;3.88
73894;BMP280;62699;50.534;12.784;2023-12-20T16:45:10;95704.41;;;4.02
73894;BMP280;62699;50.534;12.784;2023-12-20T16:50:10;95690.09;;;4.14
73894;BMP280;62699;50.534;12.784;2023-12-20T16:55:11;95696.69;;;4.04
73894;BMP280;62699;50.534;12.784;2023-12-20T17:00:12;95714.69;;;4.09
73894;BMP280;62699;50.534;12.784;2023-12-20T17:05:12;95713.41;;;4.04
73894;BMP280;62699;50.534;12.784;2023-12-20T17:10:12;95716.63;;;4.08
73894;BMP280;62699;50.534;12.784;2023-12-20T17:15:13;95710.75;;;4.04
73894;BMP280;62699;50.534;12.784;2023-12-20T17:20:13;95706.63;;;4.03
73894;BMP280;62699;50.534;12.784;2023-12-20T17:25:13;95703.88;;;4.12
73894;BMP280;62699;50.534;12.784;2023-12-20T17:30:14;95702.94;;;4.15
73894;BMP280;62699;50.534;12.784;2023-12-20T17:35:15;95695.41;;;4.14
73894;BMP280;62699;50.534;12.784;2023-12-20T17:40:15;95704.50;;;4.07
73894;BMP280;62699;50.534;12.784;2023-12-20T17:45:16;95705.06;;;4.11
73894;BMP280;62699;50.534;12.784;2023-12-20T17:50:16;95701.66;;;4.11
73894;BMP280;62699;50.534;12.784;2023-12-20T17:55:16;95698.16;;;4.05
73894;BMP280;62699;50.534;12.784;2023-12-20T18:00:20;95684.94;;;4.10
73894;BMP280;62699;50.534;12.784;2023-12-20T18:05:23;95705.88;;;4.03
73894;BMP280;62699;50.534;12.784;2023-12-20T18:10:23;95699.81;;;4.02
73894;BMP280;62699;50.534;12.784;2023-12-20T18:15:23;95703.09;;;3.97
73894;BMP280;62699;50.534;12.784;2023-12-20T18:20:26;95683.84;;;4.02
73894;BMP280;62699;50.534;12.784;2023-12-20T18:25:26;95709.56;;;4.05
73894;BMP280;62699;50.534;12.784;2023-12-20T18:30:26;95699.44;;;4.09
73894;BMP280;62699;50.534;12.784;2023-12-20T18:35:26;95685.22;;;4.12
73894;BMP280;62699;50.534;12.784;2023-12-20T18:40:27;95698.09;;;4.14
73894;BMP280;62699;50.534;12.784;2023-12-20T18:45:29;95710.47;;;4.17
73894;BMP280;62699;50.534;12.784;2023-12-20T18:50:29;95703.56;;;4.10
73894;BMP280;62699;50.534;12.784;2023-12-20T18:55:30;95695.88;;;4.12
73894;BMP280;62699;50.534;12.784;2023-12-20T19:00:30;95691.44;;;4.09
73894;BMP280;62699;50.534;12.784;2023-12-20T19:05:30;95703.56;;;4.10
73894;BMP280;62699;50.534;12.784;2023-12-20T19:10:31;95695.59;;;4.10
73894;BMP280;62699;50.534;12.784;2023-12-20T19:15:31;95681.09;;;4.11
73894;BMP280;62699;50.534;12.784;2023-12-20T19:20:31;95675.75;;;4.11
73894;BMP280;62699;50.534;12.784;2023-12-20T19:25:31;95675.75;;;4.11
73894;BMP280;62699;50.534;12.784;2023-12-20T19:30:32;95680.72;;;4.04
73894;BMP280;62699;50.534;12.784;2023-12-20T19:35:32;95663.28;;;4.03
73894;BMP280;62699;50.534;12.784;2023-12-20T19:40:32;95668.75;;;3.99
73894;BMP280;62699;50.534;12.784;2023-12-20T19:45:32;95658.97;;;4.05
73894;BMP280;62699;50.534;12.784;2023-12-20T19:50:33;95666.00;;;4.08
73894;BMP280;62699;50.534;12.784;2023-12-20T19:55:34;95668.97;;;4.10
73894;BMP280;62699;50.534;12.784;2023-12-20T20:00:34;95645.28;;;4.12
73894;BMP280;62699;50.534;12.784;2023-12-20T20:05:35;95662.13;;;4.24
73894;BMP280;62699;50.534;12.784;2023-12-20T20:10:35;95655.16;;;4.27
73894;BMP280;62699;50.534;12.784;2023-12-20T20:15:35;95649.84;;;4.27
73894;BMP280;62699;50.534;12.784;2023-12-20T20:20:35;95635.78;;;4.26
73894;BMP280;62699;50.534;12.784;2023-12-20T20:25:36;95633.28;;;4.22
73894;BMP280;62699;50.534;12.784;2023-12-20T20:30:36;95633.63;;;4.30
73894;BMP280;62699;50.534;12.784;2023-12-20T20:35:36;95634.84;;;4.29
73894;BMP280;62699;50.534;12.784;2023-12-20T20:40:37;95622.47;;;4.26
73894;BMP280;62699;50.534;12.784;2023-12-20T20:45:37;95622.63;;;4.22
73894;BMP280;62699;50.534;12.784;2023-12-20T20:50:37;95626.50;;;4.21
73894;BMP280;62699;50.534;12.784;2023-12-20T20:55:37;95616.41;;;4.26
73894;BMP280;62699;50.534;12.784;2023-12-20T21:00:37;95611.69;;;4.20
73894;BMP280;62699;50.534;12.784;2023-12-20T21:05:39;95604.44;;;4.21
73894;BMP280;62699;50.534;12.784;2023-12-20T21:10:39;95602.25;;;4.19
73894;BMP280;62699;50.534;12.784;2023-12-20T21:15:40;95608.00;;;4.33
73894;BMP280;62699;50.534;12.784;2023-12-20T21:20:40;95604.34;;;4.30
73894;BMP280;62699;50.534;12.784;2023-12-20T21:26:04;95596.91;;;4.34
73894;BMP280;62699;50.534;12.784;2023-12-20T21:31:34;95581.56;;;4.29
73894;BMP280;62699;50.534;12.784;2023-12-20T21:36:52;95583.84;;;4.36
73894;BMP280;62699;50.534;12.784;2023-12-20T21:41:56;95557.38;;;4.33
73894;BMP280;62699;50.534;12.784;2023-12-20T21:47:13;95558.53;;;4.26
73894;BMP280;62699;50.534;12.784;2023-12-20T21:52:26;95550.53;;;4.26
73894;BMP280;62699;50.534;12.784;2023-12-20T21:58:15;95542.53;;;4.26
73894;BMP280;62699;50.534;12.784;2023-12-20T22:03:49;95528.47;;;4.26
73894;BMP280;62699;50.534;12.784;2023-12-20T22:09:14;95505.69;;;4.25
73894;BMP280;62699;50.534;12.784;2023-12-20T22:14:24;95517.09;;;4.25
73894;BMP280;62699;50.534;12.784;2023-12-20T22:19:35;95505.69;;;4.25
73894;BMP280;62699;50.534;12.784;2023-12-20T22:24:38;95501.03;;;4.19
73894;BMP280;62699;50.534;12.784;2023-12-20T22:30:06;95493.38;;;4.27
73894;BMP280;62699;50.534;12.784;2023-12-20T22:35:12;95495.84;;;4.31
73894;BMP280;62699;50.534;12.784;2023-12-20T22:40:19;95478.38;;;4.30
73894;BMP280;62699;50.534;12.784;2023-12-20T22:45:30;95454.34;;;4.24
73894;BMP280;62699;50.534;12.784;2023-12-20T22:50:33;95448.56;;;4.26
73894;BMP280;62699;50.534;12.784;2023-12-20T22:55:43;95421.66;;;4.23
73894;BMP280;62699;50.534;12.784;2023-12-20T23:00:43;95405.88;;;4.20
73894;BMP280;62699;50.534;12.784;2023-12-20T23:05:47;95393.00;;;4.18
73894;BMP280;62699;50.534;12.784;2023-12-20T23:11:27;95392.09;;;4.21
73894;BMP280;62699;50.534;12.784;2023-12-20T23:16:36;95381.44;;;4.21
73894;BMP280;62699;50.534;12.784;2023-12-20T23:21:52;95353.31;;;4.20
73894;BMP280;62699;50.534;12.784;2023-12-20T23:27:26;95350.66;;;4.20
73894;BMP280;62699;50.534;12.784;2023-12-20T23:32:55;95349.28;;;4.25
73894;BMP280;62699;50.534;12.784;2023-12-20T23:38:00;95323.88;;;4.30
73894;BMP280;62699;50.534;12.784;2023-12-20T23:43:06;95314.41;;;4.29
73894;BMP280;62699;50.534;12.784;2023-12-20T23:48:09;95317.09;;;4.29
73894;BMP280;62699;50.534;12.784;2023-12-20T23:53:17;95314.50;;;4.34
73894;BMP280;62699;50.534;12.784;2023-12-20T23:58:30;95330.63;;;4.25
